sensor_id;sensor_type;location;lat;lon;timestamp;temperature;humidity
20370;DHT22;10344;47.592;9.600;2022-08-21T00:00:13;17.10;99.90
20370;DHT22;10344;47.592;9.600;2022-08-21T00:02:46;17.10;99.90
20370;DHT22;10344;47.592;9.600;2022-08-21T00:05:14;17.10;99.90
20370;DHT22;10344;47.592;9.600;2022-08-21T00:07:40;17.00;99.90
20370;DHT22;10344;47.592;9.600;2022-08-21T00:10:06;17.00;99.90
20370;DHT22;10344;47.592;9.600;2022-08-21T00:12:34;17.00;99.90
20370;DHT22;10344;47.592;9.600;2022-08-21T00:14:59;17.00;99.90
20370;DHT22;10344;47.592;9.600;2022-08-21T00:17:27;17.00;99.90
20370;DHT22;10344;47.592;9.600;2022-08-21T00:19:53;17.00;99.90
20370;DHT22;10344;47.592;9.600;2022-08-21T00:22:19;17.10;99.90
20370;DHT22;10344;47.592;9.600;2022-08-21T00:24:44;17.10;99.90
20370;DHT22;10344;47.592;9.600;2022-08-21T00:27:10;17.20;99.90
20370;DHT22;10344;47.592;9.600;2022-08-21T00:29:36;17.20;99.90
20370;DHT22;10344;47.592;9.600;2022-08-21T00:32:01;17.20;99.90
20370;DHT22;10344;47.592;9.600;2022-08-21T00:34:29;17.20;99.90
20370;DHT22;10344;47.592;9.600;2022-08-21T00:36:55;17.20;99.90
20370;DHT22;10344;47.592;9.600;2022-08-21T00:39:23;17.20;99.90
20370;DHT22;10344;47.592;9.600;2022-08-21T00:41:49;17.10;99.90
20370;DHT22;10344;47.592;9.600;2022-08-21T00:44:15;17.10;99.90
20370;DHT22;10344;47.592;9.600;2022-08-21T00:46:42;17.00;99.90
20370;DHT22;10344;47.592;9.600;2022-08-21T00:49:12;17.00;99.90
20370;DHT22;10344;47.592;9.600;2022-08-21T00:51:51;17.00;99.90
20370;DHT22;10344;47.592;9.600;2022-08-21T00:54:22;16.90;99.90
20370;DHT22;10344;47.592;9.600;2022-08-21T00:57:00;16.90;99.90
20370;DHT22;10344;47.592;9.600;2022-08-21T00:59:31;16.80;99.90
20370;DHT22;10344;47.592;9.600;2022-08-21T01:01:57;16.80;99.90
20370;DHT22;10344;47.592;9.600;2022-08-21T01:04:24;16.70;99.90
20370;DHT22;10344;47.592;9.600;2022-08-21T01:06:49;16.60;99.90
20370;DHT22;10344;47.592;9.600;2022-08-21T01:09:16;16.60;99.90
20370;DHT22;10344;47.592;9.600;2022-08-21T01:11:43;16.60;99.90
20370;DHT22;10344;47.592;9.600;2022-08-21T01:14:10;16.50;99.90
20370;DHT22;10344;47.592;9.600;2022-08-21T01:16:39;16.50;99.90
20370;DHT22;10344;47.592;9.600;2022-08-21T01:19:08;16.50;99.90
20370;DHT22;10344;47.592;9.600;2022-08-21T01:21:36;16.50;99.90
20370;DHT22;10344;47.592;9.600;2022-08-21T01:24:02;16.50;99.90
20370;DHT22;10344;47.592;9.600;2022-08-21T01:26:31;16.50;99.90
20370;DHT22;10344;47.592;9.600;2022-08-21T01:28:58;16.50;99.90
20370;DHT22;10344;47.592;9.600;2022-08-21T01:31:27;16.50;99.90
20370;DHT22;10344;47.592;9.600;2022-08-21T01:33:54;16.50;99.90
20370;DHT22;10344;47.592;9.600;2022-08-21T01:36:20;16.50;99.90
20370;DHT22;10344;47.592;9.600;2022-08-21T01:38:46;16.50;99.90
20370;DHT22;10344;47.592;9.600;2022-08-21T01:41:13;16.50;99.90
20370;DHT22;10344;47.592;9.600;2022-08-21T01:43:39;16.50;99.90
20370;DHT22;10344;47.592;9.600;2022-08-21T01:46:08;16.50;99.90
20370;DHT22;10344;47.592;9.600;2022-08-21T01:48:35;16.50;99.90
20370;DHT22;10344;47.592;9.600;2022-08-21T01:51:01;16.50;99.90
20370;DHT22;10344;47.592;9.600;2022-08-21T01:53:29;16.60;99.90
20370;DHT22;10344;47.592;9.600;2022-08-21T01:55:55;16.60;99.90
20370;DHT22;10344;47.592;9.600;2022-08-21T01:58:21;16.60;99.90
20370;DHT22;10344;47.592;9.600;2022-08-21T02:00:47;16.50;99.90
20370;DHT22;10344;47.592;9.600;2022-08-21T02:03:12;16.50;99.90
20370;DHT22;10344;47.592;9.600;2022-08-21T02:05:38;16.60;99.90
20370;DHT22;10344;47.592;9.600;2022-08-21T02:08:05;16.60;99.90
20370;DHT22;10344;47.592;9.600;2022-08-21T02:10:32;16.60;99.90
20370;DHT22;10344;47.592;9.600;2022-08-21T02:13:19;16.70;99.90
20370;DHT22;10344;47.592;9.600;2022-08-21T02:15:51;16.80;99.90
20370;DHT22;10344;47.592;9.600;2022-08-21T02:18:19;16.90;99.90
20370;DHT22;10344;47.592;9.600;2022-08-21T02:20:47;16.90;99.90
20370;DHT22;10344;47.592;9.600;2022-08-21T02:23:14;16.80;99.90
20370;DHT22;10344;47.592;9.600;2022-08-21T02:25:46;16.90;99.90
20370;DHT22;10344;47.592;9.600;2022-08-21T02:28:23;16.90;99.90
20370;DHT22;10344;47.592;9.600;2022-08-21T02:57:28;16.80;99.90
20370;DHT22;10344;47.592;9.600;2022-08-21T03:03:24;16.70;99.90
20370;DHT22;10344;47.592;9.600;2022-08-21T03:06:07;16.70;99.90
20370;DHT22;10344;47.592;9.600;2022-08-21T03:12:31;16.60;99.90
20370;DHT22;10344;47.592;9.600;2022-08-21T03:18:21;16.60;99.90
20370;DHT22;10344;47.592;9.600;2022-08-21T03:20:49;16.50;99.90
20370;DHT22;10344;47.592;9.600;2022-08-21T03:23:16;16.40;99.90
20370;DHT22;10344;47.592;9.600;2022-08-21T03:25:43;16.30;99.90
20370;DHT22;10344;47.592;9.600;2022-08-21T03:28:12;16.30;99.90
20370;DHT22;10344;47.592;9.600;2022-08-21T03:30:43;16.30;99.90
20370;DHT22;10344;47.592;9.600;2022-08-21T03:33:10;16.40;99.90
20370;DHT22;10344;47.592;9.600;2022-08-21T03:35:57;16.30;99.90
20370;DHT22;10344;47.592;9.600;2022-08-21T03:38:41;16.30;99.90
20370;DHT22;10344;47.592;9.600;2022-08-21T03:41:11;16.20;99.90
20370;DHT22;10344;47.592;9.600;2022-08-21T03:43:37;16.10;99.90
20370;DHT22;10344;47.592;9.600;2022-08-21T03:46:06;16.10;99.90
20370;DHT22;10344;47.592;9.600;2022-08-21T03:48:34;16.10;99.90
20370;DHT22;10344;47.592;9.600;2022-08-21T03:51:03;16.00;99.90
20370;DHT22;10344;47.592;9.600;2022-08-21T03:53:29;16.00;99.90
20370;DHT22;10344;47.592;9.600;2022-08-21T03:56:31;15.90;99.90
20370;DHT22;10344;47.592;9.600;2022-08-21T03:59:00;15.90;99.90
20370;DHT22;10344;47.592;9.600;2022-08-21T04:01:57;15.90;99.90
20370;DHT22;10344;47.592;9.600;2022-08-21T04:04:25;15.90;99.90
20370;DHT22;10344;47.592;9.600;2022-08-21T04:06:51;15.90;99.90
20370;DHT22;10344;47.592;9.600;2022-08-21T04:09:18;15.80;99.90
20370;DHT22;10344;47.592;9.600;2022-08-21T04:11:44;15.80;99.90
20370;DHT22;10344;47.592;9.600;2022-08-21T04:14:13;15.80;99.90
20370;DHT22;10344;47.592;9.600;2022-08-21T04:16:40;15.80;99.90
20370;DHT22;10344;47.592;9.600;2022-08-21T04:19:07;15.90;99.90
20370;DHT22;10344;47.592;9.600;2022-08-21T04:21:35;15.90;99.90
20370;DHT22;10344;47.592;9.600;2022-08-21T04:24:04;15.90;99.90
20370;DHT22;10344;47.592;9.600;2022-08-21T04:26:30;15.90;99.90
20370;DHT22;10344;47.592;9.600;2022-08-21T04:28:57;16.00;99.90
20370;DHT22;10344;47.592;9.600;2022-08-21T04:31:24;16.00;99.90
20370;DHT22;10344;47.592;9.600;2022-08-21T04:33:51;16.00;99.90
20370;DHT22;10344;47.592;9.600;2022-08-21T04:36:17;16.00;99.90
20370;DHT22;10344;47.592;9.600;2022-08-21T04:38:43;16.10;99.90
20370;DHT22;10344;47.592;9.600;2022-08-21T04:41:11;16.10;99.90
20370;DHT22;10344;47.592;9.600;2022-08-21T04:43:38;16.10;99.90
20370;DHT22;10344;47.592;9.600;2022-08-21T04:46:04;16.10;99.90
20370;DHT22;10344;47.592;9.600;2022-08-21T04:48:29;16.10;99.90
20370;DHT22;10344;47.592;9.600;2022-08-21T04:51:30;16.00;99.90
20370;DHT22;10344;47.592;9.600;2022-08-21T04:54:12;15.90;99.90
20370;DHT22;10344;47.592;9.600;2022-08-21T04:56:44;15.90;99.90
20370;DHT22;10344;47.592;9.600;2022-08-21T04:59:17;15.90;99.90
20370;DHT22;10344;47.592;9.600;2022-08-21T05:01:56;15.90;99.90
20370;DHT22;10344;47.592;9.600;2022-08-21T05:04:30;15.90;99.90
20370;DHT22;10344;47.592;9.600;2022-08-21T05:07:00;15.90;99.90
20370;DHT22;10344;47.592;9.600;2022-08-21T05:09:30;15.90;99.90
20370;DHT22;10344;47.592;9.600;2022-08-21T05:11:56;16.00;99.90
20370;DHT22;10344;47.592;9.600;2022-08-21T05:14:23;16.00;99.90
20370;DHT22;10344;47.592;9.600;2022-08-21T05:16:52;16.10;99.90
20370;DHT22;10344;47.592;9.600;2022-08-21T05:19:18;16.20;99.90
20370;DHT22;10344;47.592;9.600;2022-08-21T05:21:45;16.20;99.90
20370;DHT22;10344;47.592;9.600;2022-08-21T05:24:11;16.30;99.90
20370;DHT22;10344;47.592;9.600;2022-08-21T05:26:37;16.30;99.90
20370;DHT22;10344;47.592;9.600;2022-08-21T05:29:03;16.30;99.90
20370;DHT22;10344;47.592;9.600;2022-08-21T05:31:33;16.30;99.90
20370;DHT22;10344;47.592;9.600;2022-08-21T05:34:05;16.20;99.90
20370;DHT22;10344;47.592;9.600;2022-08-21T05:36:32;16.20;99.90
20370;DHT22;10344;47.592;9.600;2022-08-21T05:38:57;16.20;99.90
20370;DHT22;10344;47.592;9.600;2022-08-21T05:41:23;16.20;99.90
20370;DHT22;10344;47.592;9.600;2022-08-21T05:43:49;16.30;99.90
20370;DHT22;10344;47.592;9.600;2022-08-21T05:46:17;16.30;99.90
20370;DHT22;10344;47.592;9.600;2022-08-21T05:48:45;16.50;99.90
20370;DHT22;10344;47.592;9.600;2022-08-21T05:51:14;16.60;99.90
20370;DHT22;10344;47.592;9.600;2022-08-21T05:53:42;16.80;99.90
20370;DHT22;10344;47.592;9.600;2022-08-21T05:56:11;16.80;99.90
20370;DHT22;10344;47.592;9.600;2022-08-21T05:58:37;16.90;99.90
20370;DHT22;10344;47.592;9.600;2022-08-21T06:01:03;17.00;99.90
20370;DHT22;10344;47.592;9.600;2022-08-21T06:03:34;17.10;99.90
20370;DHT22;10344;47.592;9.600;2022-08-21T06:06:01;17.20;99.90
20370;DHT22;10344;47.592;9.600;2022-08-21T06:08:27;17.30;99.90
20370;DHT22;10344;47.592;9.600;2022-08-21T06:10:58;17.40;99.90
20370;DHT22;10344;47.592;9.600;2022-08-21T06:13:24;17.40;99.90
20370;DHT22;10344;47.592;9.600;2022-08-21T06:15:59;17.50;99.90
20370;DHT22;10344;47.592;9.600;2022-08-21T06:18:25;17.70;99.90
20370;DHT22;10344;47.592;9.600;2022-08-21T06:20:51;17.90;99.90
20370;DHT22;10344;47.592;9.600;2022-08-21T06:23:16;18.10;99.90
20370;DHT22;10344;47.592;9.600;2022-08-21T06:25:44;18.30;99.90
20370;DHT22;10344;47.592;9.600;2022-08-21T06:28:10;18.50;99.90
20370;DHT22;10344;47.592;9.600;2022-08-21T06:30:38;18.40;99.90
20370;DHT22;10344;47.592;9.600;2022-08-21T06:33:05;18.50;99.90
20370;DHT22;10344;47.592;9.600;2022-08-21T06:35:33;18.50;99.90
20370;DHT22;10344;47.592;9.600;2022-08-21T06:37:59;18.50;99.90
20370;DHT22;10344;47.592;9.600;2022-08-21T06:40:31;18.50;99.90
20370;DHT22;10344;47.592;9.600;2022-08-21T06:42:58;18.40;99.90
20370;DHT22;10344;47.592;9.600;2022-08-21T06:45:24;18.40;99.90
20370;DHT22;10344;47.592;9.600;2022-08-21T06:47:49;18.50;99.90
20370;DHT22;10344;47.592;9.600;2022-08-21T06:50:15;18.40;99.90
20370;DHT22;10344;47.592;9.600;2022-08-21T06:52:41;18.40;99.90
20370;DHT22;10344;47.592;9.600;2022-08-21T06:55:08;18.90;99.90
20370;DHT22;10344;47.592;9.600;2022-08-21T06:57:35;19.90;99.90
20370;DHT22;10344;47.592;9.600;2022-08-21T07:00:03;21.10;99.90
20370;DHT22;10344;47.592;9.600;2022-08-21T07:02:29;22.50;99.90
20370;DHT22;10344;47.592;9.600;2022-08-21T07:04:54;23.90;99.90
20370;DHT22;10344;47.592;9.600;2022-08-21T07:07:20;25.20;99.90
20370;DHT22;10344;47.592;9.600;2022-08-21T07:09:48;25.60;99.90
20370;DHT22;10344;47.592;9.600;2022-08-21T07:12:13;26.20;99.90
20370;DHT22;10344;47.592;9.600;2022-08-21T07:14:39;26.20;99.90
20370;DHT22;10344;47.592;9.600;2022-08-21T07:17:04;26.20;99.90
20370;DHT22;10344;47.592;9.600;2022-08-21T07:19:30;26.50;99.90
20370;DHT22;10344;47.592;9.600;2022-08-21T07:21:58;27.00;99.90
20370;DHT22;10344;47.592;9.600;2022-08-21T07:24:25;27.40;99.90
20370;DHT22;10344;47.592;9.600;2022-08-21T07:26:51;27.30;99.90
20370;DHT22;10344;47.592;9.600;2022-08-21T07:29:16;27.40;99.90
20370;DHT22;10344;47.592;9.600;2022-08-21T07:31:42;27.90;99.90
20370;DHT22;10344;47.592;9.600;2022-08-21T07:34:08;27.60;99.90
20370;DHT22;10344;47.592;9.600;2022-08-21T07:36:34;27.40;99.90
20370;DHT22;10344;47.592;9.600;2022-08-21T07:39:00;27.20;99.90
20370;DHT22;10344;47.592;9.600;2022-08-21T07:41:27;26.70;99.90
20370;DHT22;10344;47.592;9.600;2022-08-21T07:43:58;27.20;99.90
20370;DHT22;10344;47.592;9.600;2022-08-21T07:46:24;27.60;99.90
20370;DHT22;10344;47.592;9.600;2022-08-21T07:48:53;28.00;99.90
20370;DHT22;10344;47.592;9.600;2022-08-21T07:51:21;28.50;99.90
20370;DHT22;10344;47.592;9.600;2022-08-21T07:53:50;28.60;99.90
20370;DHT22;10344;47.592;9.600;2022-08-21T07:56:16;29.00;99.90
20370;DHT22;10344;47.592;9.600;2022-08-21T07:58:42;29.10;99.90
20370;DHT22;10344;47.592;9.600;2022-08-21T08:01:07;29.10;99.90
20370;DHT22;10344;47.592;9.600;2022-08-21T08:03:33;28.90;99.90
20370;DHT22;10344;47.592;9.600;2022-08-21T08:05:59;28.70;99.90
20370;DHT22;10344;47.592;9.600;2022-08-21T08:08:25;28.60;99.90
20370;DHT22;10344;47.592;9.600;2022-08-21T08:10:52;29.20;99.90
20370;DHT22;10344;47.592;9.600;2022-08-21T08:13:18;29.00;99.90
20370;DHT22;10344;47.592;9.600;2022-08-21T08:15:44;29.10;99.90
20370;DHT22;10344;47.592;9.600;2022-08-21T08:18:12;29.20;99.90
20370;DHT22;10344;47.592;9.600;2022-08-21T08:20:39;29.00;99.90
20370;DHT22;10344;47.592;9.600;2022-08-21T08:23:09;29.40;99.90
20370;DHT22;10344;47.592;9.600;2022-08-21T08:25:35;29.40;99.90
20370;DHT22;10344;47.592;9.600;2022-08-21T08:28:00;29.40;99.90
20370;DHT22;10344;47.592;9.600;2022-08-21T08:30:26;29.10;99.90
20370;DHT22;10344;47.592;9.600;2022-08-21T08:32:54;28.90;99.90
20370;DHT22;10344;47.592;9.600;2022-08-21T08:35:22;29.20;99.90
20370;DHT22;10344;47.592;9.600;2022-08-21T08:37:51;29.50;99.90
20370;DHT22;10344;47.592;9.600;2022-08-21T08:40:47;29.90;99.90
20370;DHT22;10344;47.592;9.600;2022-08-21T08:43:17;29.40;99.90
20370;DHT22;10344;47.592;9.600;2022-08-21T08:45:46;29.40;99.90
20370;DHT22;10344;47.592;9.600;2022-08-21T08:48:28;29.50;99.90
20370;DHT22;10344;47.592;9.600;2022-08-21T08:51:00;29.40;99.90
20370;DHT22;10344;47.592;9.600;2022-08-21T08:53:32;29.20;99.90
20370;DHT22;10344;47.592;9.600;2022-08-21T08:56:00;28.60;99.90
20370;DHT22;10344;47.592;9.600;2022-08-21T08:58:31;28.60;99.90
20370;DHT22;10344;47.592;9.600;2022-08-21T09:01:00;28.60;99.90
20370;DHT22;10344;47.592;9.600;2022-08-21T09:03:26;28.80;99.90
20370;DHT22;10344;47.592;9.600;2022-08-21T09:06:01;29.10;99.90
20370;DHT22;10344;47.592;9.600;2022-08-21T09:11:59;29.60;99.90
20370;DHT22;10344;47.592;9.600;2022-08-21T09:25:15;27.50;99.90
20370;DHT22;10344;47.592;9.600;2022-08-21T09:27:42;27.20;99.90
20370;DHT22;10344;47.592;9.600;2022-08-21T09:30:08;27.00;99.90
20370;DHT22;10344;47.592;9.600;2022-08-21T09:32:35;26.90;99.90
20370;DHT22;10344;47.592;9.600;2022-08-21T09:35:07;27.50;99.90
20370;DHT22;10344;47.592;9.600;2022-08-21T09:37:44;27.70;99.90
20370;DHT22;10344;47.592;9.600;2022-08-21T09:40:22;27.80;99.90
20370;DHT22;10344;47.592;9.600;2022-08-21T09:45:29;28.00;99.90
20370;DHT22;10344;47.592;9.600;2022-08-21T09:47:55;28.40;99.90
20370;DHT22;10344;47.592;9.600;2022-08-21T09:50:25;28.30;99.90
20370;DHT22;10344;47.592;9.600;2022-08-21T09:52:55;27.80;99.90
20370;DHT22;10344;47.592;9.600;2022-08-21T09:58:18;27.50;99.90
20370;DHT22;10344;47.592;9.600;2022-08-21T10:00:43;28.00;99.90
20370;DHT22;10344;47.592;9.600;2022-08-21T10:03:16;28.10;99.90
20370;DHT22;10344;47.592;9.600;2022-08-21T10:05:51;27.80;99.90
20370;DHT22;10344;47.592;9.600;2022-08-21T10:08:18;27.80;99.90
20370;DHT22;10344;47.592;9.600;2022-08-21T10:10:44;27.10;99.90
20370;DHT22;10344;47.592;9.600;2022-08-21T10:18:42;26.50;99.90
20370;DHT22;10344;47.592;9.600;2022-08-21T10:24:00;26.80;99.90
20370;DHT22;10344;47.592;9.600;2022-08-21T10:36:47;27.00;99.90
20370;DHT22;10344;47.592;9.600;2022-08-21T10:39:40;26.50;99.90
20370;DHT22;10344;47.592;9.600;2022-08-21T10:42:17;26.10;99.90
20370;DHT22;10344;47.592;9.600;2022-08-21T10:47:55;25.60;99.90
20370;DHT22;10344;47.592;9.600;2022-08-21T11:01:25;27.70;99.90
20370;DHT22;10344;47.592;9.600;2022-08-21T11:04:04;28.00;99.90
20370;DHT22;10344;47.592;9.600;2022-08-21T11:06:31;27.70;99.90
20370;DHT22;10344;47.592;9.600;2022-08-21T11:09:09;27.30;99.90
20370;DHT22;10344;47.592;9.600;2022-08-21T11:11:44;27.20;99.90
20370;DHT22;10344;47.592;9.600;2022-08-21T11:17:13;26.00;99.90
20370;DHT22;10344;47.592;9.600;2022-08-21T11:19:53;26.20;99.90
20370;DHT22;10344;47.592;9.600;2022-08-21T11:25:06;26.50;99.90
20370;DHT22;10344;47.592;9.600;2022-08-21T11:27:36;26.80;99.90
20370;DHT22;10344;47.592;9.600;2022-08-21T11:30:05;27.50;99.90
20370;DHT22;10344;47.592;9.600;2022-08-21T11:35:20;28.90;99.90
20370;DHT22;10344;47.592;9.600;2022-08-21T11:48:00;29.00;99.90
20370;DHT22;10344;47.592;9.600;2022-08-21T11:50:32;28.70;99.90
20370;DHT22;10344;47.592;9.600;2022-08-21T11:55:59;29.00;99.90
20370;DHT22;10344;47.592;9.600;2022-08-21T11:58:41;28.30;99.90
20370;DHT22;10344;47.592;9.600;2022-08-21T12:01:10;28.10;99.90
20370;DHT22;10344;47.592;9.600;2022-08-21T12:03:43;28.30;99.90
20370;DHT22;10344;47.592;9.600;2022-08-21T12:06:16;28.40;99.90
20370;DHT22;10344;47.592;9.600;2022-08-21T12:09:29;28.40;99.90
20370;DHT22;10344;47.592;9.600;2022-08-21T12:12:12;28.40;99.90
20370;DHT22;10344;47.592;9.600;2022-08-21T12:17:04;27.90;99.90
20370;DHT22;10344;47.592;9.600;2022-08-21T12:19:30;28.30;99.90
20370;DHT22;10344;47.592;9.600;2022-08-21T12:22:07;28.30;99.90
20370;DHT22;10344;47.592;9.600;2022-08-21T12:27:01;28.10;99.90
20370;DHT22;10344;47.592;9.600;2022-08-21T12:29:38;27.90;99.90
20370;DHT22;10344;47.592;9.600;2022-08-21T12:37:43;27.30;99.90
20370;DHT22;10344;47.592;9.600;2022-08-21T12:40:11;27.50;99.90
20370;DHT22;10344;47.592;9.600;2022-08-21T12:42:41;27.40;99.90
20370;DHT22;10344;47.592;9.600;2022-08-21T12:45:23;27.10;99.90
20370;DHT22;10344;47.592;9.600;2022-08-21T12:47:56;27.30;99.90
20370;DHT22;10344;47.592;9.600;2022-08-21T12:50:43;27.50;99.90
20370;DHT22;10344;47.592;9.600;2022-08-21T12:53:21;27.60;99.90
20370;DHT22;10344;47.592;9.600;2022-08-21T12:55:48;27.70;99.90
20370;DHT22;10344;47.592;9.600;2022-08-21T12:58:18;28.10;99.90
20370;DHT22;10344;47.592;9.600;2022-08-21T13:00:47;27.90;99.90
20370;DHT22;10344;47.592;9.600;2022-08-21T13:03:14;27.80;99.90
20370;DHT22;10344;47.592;9.600;2022-08-21T13:05:40;27.60;99.90
20370;DHT22;10344;47.592;9.600;2022-08-21T13:08:09;27.50;99.90
20370;DHT22;10344;47.592;9.600;2022-08-21T13:10:36;27.90;99.90
20370;DHT22;10344;47.592;9.600;2022-08-21T13:13:06;27.90;99.90
20370;DHT22;10344;47.592;9.600;2022-08-21T13:15:34;28.30;99.90
20370;DHT22;10344;47.592;9.600;2022-08-21T13:18:00;28.80;99.90
20370;DHT22;10344;47.592;9.600;2022-08-21T13:20:39;29.20;99.90
20370;DHT22;10344;47.592;9.600;2022-08-21T13:23:23;29.10;99.90
20370;DHT22;10344;47.592;9.600;2022-08-21T13:25:49;28.70;99.90
20370;DHT22;10344;47.592;9.600;2022-08-21T13:28:15;28.20;99.90
20370;DHT22;10344;47.592;9.600;2022-08-21T13:30:48;27.80;99.90
20370;DHT22;10344;47.592;9.600;2022-08-21T13:33:15;27.60;99.90
20370;DHT22;10344;47.592;9.600;2022-08-21T13:36:00;27.70;99.90
20370;DHT22;10344;47.592;9.600;2022-08-21T13:38:31;27.90;99.90
20370;DHT22;10344;47.592;9.600;2022-08-21T13:41:04;28.00;99.90
20370;DHT22;10344;47.592;9.600;2022-08-21T13:43:32;28.40;99.90
20370;DHT22;10344;47.592;9.600;2022-08-21T13:45:58;28.90;99.90
20370;DHT22;10344;47.592;9.600;2022-08-21T13:48:28;29.20;99.90
20370;DHT22;10344;47.592;9.600;2022-08-21T13:50:55;29.50;99.90
20370;DHT22;10344;47.592;9.600;2022-08-21T13:55:56;29.90;99.90
20370;DHT22;10344;47.592;9.600;2022-08-21T13:58:26;30.10;99.90
20370;DHT22;10344;47.592;9.600;2022-08-21T14:00:52;30.20;99.90
20370;DHT22;10344;47.592;9.600;2022-08-21T14:03:42;30.00;99.90
20370;DHT22;10344;47.592;9.600;2022-08-21T14:06:22;30.20;99.90
20370;DHT22;10344;47.592;9.600;2022-08-21T14:08:58;30.10;99.90
20370;DHT22;10344;47.592;9.600;2022-08-21T14:11:26;30.00;99.90
20370;DHT22;10344;47.592;9.600;2022-08-21T14:16:24;30.20;99.90
20370;DHT22;10344;47.592;9.600;2022-08-21T14:19:24;30.20;99.90
20370;DHT22;10344;47.592;9.600;2022-08-21T14:21:53;30.00;99.90
20370;DHT22;10344;47.592;9.600;2022-08-21T14:27:01;29.80;99.90
20370;DHT22;10344;47.592;9.600;2022-08-21T14:29:31;29.80;99.90
20370;DHT22;10344;47.592;9.600;2022-08-21T14:31:59;29.80;99.90
20370;DHT22;10344;47.592;9.600;2022-08-21T14:34:27;29.80;99.90
20370;DHT22;10344;47.592;9.600;2022-08-21T14:36:53;29.60;99.90
20370;DHT22;10344;47.592;9.600;2022-08-21T14:39:20;29.60;99.90
20370;DHT22;10344;47.592;9.600;2022-08-21T14:41:47;29.20;99.90
20370;DHT22;10344;47.592;9.600;2022-08-21T14:44:15;29.10;99.90
20370;DHT22;10344;47.592;9.600;2022-08-21T14:46:41;29.20;99.90
20370;DHT22;10344;47.592;9.600;2022-08-21T14:49:07;29.20;99.90
20370;DHT22;10344;47.592;9.600;2022-08-21T14:51:33;29.30;99.90
20370;DHT22;10344;47.592;9.600;2022-08-21T14:53:59;29.40;99.90
20370;DHT22;10344;47.592;9.600;2022-08-21T14:56:24;29.40;99.90
20370;DHT22;10344;47.592;9.600;2022-08-21T14:58:51;29.40;99.90
20370;DHT22;10344;47.592;9.600;2022-08-21T15:01:17;29.50;99.90
20370;DHT22;10344;47.592;9.600;2022-08-21T15:03:44;29.40;99.90
20370;DHT22;10344;47.592;9.600;2022-08-21T15:06:10;29.50;99.90
20370;DHT22;10344;47.592;9.600;2022-08-21T15:08:36;29.50;99.90
20370;DHT22;10344;47.592;9.600;2022-08-21T15:11:02;29.60;99.90
20370;DHT22;10344;47.592;9.600;2022-08-21T15:13:28;29.80;99.90
20370;DHT22;10344;47.592;9.600;2022-08-21T15:15:54;30.00;99.90
20370;DHT22;10344;47.592;9.600;2022-08-21T15:18:22;30.20;99.90
20370;DHT22;10344;47.592;9.600;2022-08-21T15:20:49;30.30;99.90
20370;DHT22;10344;47.592;9.600;2022-08-21T15:23:15;30.50;99.90
20370;DHT22;10344;47.592;9.600;2022-08-21T15:25:48;30.50;99.90
20370;DHT22;10344;47.592;9.600;2022-08-21T15:28:17;30.60;99.90
20370;DHT22;10344;47.592;9.600;2022-08-21T15:30:44;30.60;99.90
20370;DHT22;10344;47.592;9.600;2022-08-21T15:33:10;30.90;99.90
20370;DHT22;10344;47.592;9.600;2022-08-21T15:35:38;31.00;99.90
20370;DHT22;10344;47.592;9.600;2022-08-21T15:38:05;30.90;99.90
20370;DHT22;10344;47.592;9.600;2022-08-21T15:40:31;30.80;99.90
20370;DHT22;10344;47.592;9.600;2022-08-21T15:42:59;30.90;99.90
20370;DHT22;10344;47.592;9.600;2022-08-21T15:45:26;30.90;99.90
20370;DHT22;10344;47.592;9.600;2022-08-21T15:47:51;31.00;99.90
20370;DHT22;10344;47.592;9.600;2022-08-21T15:50:17;31.00;99.90
20370;DHT22;10344;47.592;9.600;2022-08-21T15:52:43;30.80;99.90
20370;DHT22;10344;47.592;9.600;2022-08-21T15:55:09;30.70;99.90
20370;DHT22;10344;47.592;9.600;2022-08-21T15:57:35;30.70;99.90
20370;DHT22;10344;47.592;9.600;2022-08-21T16:00:15;30.60;99.90
20370;DHT22;10344;47.592;9.600;2022-08-21T16:02:45;30.60;99.90
20370;DHT22;10344;47.592;9.600;2022-08-21T16:05:11;30.40;99.90
20370;DHT22;10344;47.592;9.600;2022-08-21T16:07:38;30.20;99.90
20370;DHT22;10344;47.592;9.600;2022-08-21T16:10:04;29.80;99.90
20370;DHT22;10344;47.592;9.600;2022-08-21T16:12:33;29.40;99.90
20370;DHT22;10344;47.592;9.600;2022-08-21T16:15:01;28.90;99.90
20370;DHT22;10344;47.592;9.600;2022-08-21T16:17:31;28.20;99.90
20370;DHT22;10344;47.592;9.600;2022-08-21T16:20:00;27.70;99.90
20370;DHT22;10344;47.592;9.600;2022-08-21T16:22:26;27.20;99.90
20370;DHT22;10344;47.592;9.600;2022-08-21T16:24:52;26.90;99.90
20370;DHT22;10344;47.592;9.600;2022-08-21T16:27:18;26.70;99.90
20370;DHT22;10344;47.592;9.600;2022-08-21T16:29:45;26.40;99.90
20370;DHT22;10344;47.592;9.600;2022-08-21T16:32:11;26.30;99.90
20370;DHT22;10344;47.592;9.600;2022-08-21T16:34:40;26.10;99.90
20370;DHT22;10344;47.592;9.600;2022-08-21T16:37:07;25.80;99.90
20370;DHT22;10344;47.592;9.600;2022-08-21T16:39:33;25.60;99.90
20370;DHT22;10344;47.592;9.600;2022-08-21T16:41:58;25.50;99.90
20370;DHT22;10344;47.592;9.600;2022-08-21T16:44:24;25.40;99.90
20370;DHT22;10344;47.592;9.600;2022-08-21T16:46:49;25.30;99.90
20370;DHT22;10344;47.592;9.600;2022-08-21T16:49:17;25.10;99.90
20370;DHT22;10344;47.592;9.600;2022-08-21T16:51:43;25.10;99.90
20370;DHT22;10344;47.592;9.600;2022-08-21T16:54:10;25.10;99.90
20370;DHT22;10344;47.592;9.600;2022-08-21T16:56:36;25.00;99.90
20370;DHT22;10344;47.592;9.600;2022-08-21T16:59:02;25.00;99.90
20370;DHT22;10344;47.592;9.600;2022-08-21T17:01:31;24.90;99.90
20370;DHT22;10344;47.592;9.600;2022-08-21T17:03:57;24.90;99.90
20370;DHT22;10344;47.592;9.600;2022-08-21T17:06:26;24.70;99.90
20370;DHT22;10344;47.592;9.600;2022-08-21T17:08:51;24.60;99.90
20370;DHT22;10344;47.592;9.600;2022-08-21T17:11:37;24.60;99.90
20370;DHT22;10344;47.592;9.600;2022-08-21T17:14:11;24.60;99.90
20370;DHT22;10344;47.592;9.600;2022-08-21T17:16:40;24.60;99.90
20370;DHT22;10344;47.592;9.600;2022-08-21T17:19:09;24.50;99.90
20370;DHT22;10344;47.592;9.600;2022-08-21T17:21:37;24.30;99.90
20370;DHT22;10344;47.592;9.600;2022-08-21T17:24:03;24.30;99.90
20370;DHT22;10344;47.592;9.600;2022-08-21T17:26:29;24.20;99.90
20370;DHT22;10344;47.592;9.600;2022-08-21T17:28:55;24.10;99.90
20370;DHT22;10344;47.592;9.600;2022-08-21T17:31:23;24.00;99.90
20370;DHT22;10344;47.592;9.600;2022-08-21T17:33:49;23.90;99.90
20370;DHT22;10344;47.592;9.600;2022-08-21T17:36:17;23.80;99.90
20370;DHT22;10344;47.592;9.600;2022-08-21T17:38:45;23.70;99.90
20370;DHT22;10344;47.592;9.600;2022-08-21T17:41:11;23.60;99.90
20370;DHT22;10344;47.592;9.600;2022-08-21T17:43:38;23.50;99.90
20370;DHT22;10344;47.592;9.600;2022-08-21T17:46:09;23.40;99.90
20370;DHT22;10344;47.592;9.600;2022-08-21T17:48:36;23.30;99.90
20370;DHT22;10344;47.592;9.600;2022-08-21T17:51:02;23.20;99.90